CST,Max TemperatureF,Mean TemperatureF,Min TemperatureF,Max Dew PointF,MeanDew PointF,Min DewpointF,Max Humidity, Mean Humidity, Min Humidity, Max Sea Level PressureIn, Mean Sea Level PressureIn, Min Sea Level PressureIn, Max VisibilityMiles, Mean VisibilityMiles, Min VisibilityMiles, Max Wind SpeedMPH, Mean Wind SpeedMPH, Max Gust SpeedMPH,PrecipitationIn, CloudCover, Events, WindDirDegrees
2013-2-1,26,20,13,16,7,0,63,54,45,30.57,30.45,30.34,10,10,10,20,7,25,0.00,1,,255
2013-2-2,48,37,26,30,24,16,78,62,45,30.31,30.17,30.09,10,10,10,17,6,21,0.00,4,,241
2013-2-3,45,37,28,29,24,19,92,65,37,30.18,30.12,30.04,10,10,10,21,7,26,0.00,1,,323
2013-2-4,44,38,31,39,33,23,100,79,57,30.07,29.94,29.87,10,10,3,18,8,25,T,5,Rain,211
2013-2-5,54,40,26,41,32,25,100,80,59,30.11,30.03,29.95,10,5,0,12,4,15,0.00,0,Fog,32
2013-2-6,55,41,27,34,30,25,92,65,38,30.27,30.17,30.08,10,10,6,14,4,18,0.00,0,,84
2013-2-7,63,49,35,53,42,21,93,75,56,30.19,29.96,29.87,10,9,3,22,7,26,0.01,4,Rain,187
2013-2-8,48,41,34,43,33,26,86,75,64,30.38,30.23,29.98,10,8,4,14,14,17,0.00,8,,6
2013-2-9,44,38,31,38,29,25,92,75,58,30.38,30.26,30.05,10,10,9,13,6,15,T,5,,101
2013-2-10,56,49,41,54,45,34,93,80,66,30.04,29.84,29.69,10,8,1,25,13,32,0.69,7,Rain,174
2013-2-11,55,44,32,34,30,28,89,62,35,30.17,30.08,29.88,10,10,10,24,8,33,0.00,0,,257
2013-2-12,51,39,27,34,30,25,100,75,50,30.18,30.07,29.89,10,8,1,14,4,16,0.00,3,,52
2013-2-13,49,43,36,38,35,33,86,74,61,29.95,29.90,29.87,10,8,3,16,9,20,0.01,5,Rain,302
2013-2-14,62,49,35,43,35,28,92,66,39,30.06,29.96,29.91,10,10,10,16,6,21,0.00,1,,240
2013-2-15,45,36,26,35,24,16,79,56,33,30.25,30.19,30.06,10,10,10,20,9,24,0.00,3,,344
2013-2-16,39,31,23,20,14,6,81,54,27,30.28,30.23,30.20,10,10,10,17,7,22,0.00,0,,327
2013-2-17,48,35,22,30,25,19,88,67,46,30.24,30.16,30.02,10,10,10,17,7,23,0.00,4,,158
2013-2-18,54,46,38,48,43,27,93,76,59,30.01,29.80,29.65,10,7,1,30,18,40,0.69,7,Rain-Thunderstorm,189
2013-2-19,46,37,28,32,19,9,76,49,22,30.32,30.14,29.95,10,9,0,25,13,33,0.00,1,,301
2013-2-20,32,28,23,18,14,11,63,55,46,30.40,30.34,30.29,10,10,10,14,9,17,0.00,2,,11
2013-2-21,35,31,26,32,26,17,96,77,58,30.30,30.01,29.83,10,6,2,25,12,33,1.04,8,Rain,81
2013-2-22,43,36,28,34,31,25,96,83,70,30.11,29.97,29.84,10,8,1,21,8,26,0.00,6,,247
2013-2-23,43,35,26,29,24,20,92,73,53,30.09,30.05,29.99,10,10,7,10,2,14,0.00,0,,335
2013-2-24,50,37,24,29,26,23,92,66,39,30.15,30.08,30.01,10,9,3,10,4,13,0.00,0,,90
2013-2-25,57,46,34,37,30,25,82,57,32,30.04,29.79,29.44,10,9,4,24,14,30,0.39,4,Rain-Thunderstorm,63
2013-2-26,49,44,38,46,39,33,93,85,77,29.70,29.45,29.31,10,9,2,25,15,32,0.21,8,Rain-Thunderstorm,217
2013-2-27,40,37,34,34,31,25,85,75,64,29.93,29.85,29.73,10,9,5,21,13,25,T,8,Rain-Snow,272
2013-2-28,39,36,33,31,28,25,89,77,64,30.12,30.04,29.92,10,9,3,14,9,18,T,8,Snow,305